createdAt,value
2019-04-07T00:02:09.742Z,99.90
2019-04-07T00:04:38.646Z,99.90
2019-04-07T00:07:08.111Z,99.90
2019-04-07T00:09:37.164Z,99.90
2019-04-07T00:12:06.181Z,99.90
2019-04-07T00:14:35.992Z,99.90
2019-04-07T00:17:05.692Z,99.90
2019-04-07T00:19:34.970Z,99.90
2019-04-07T00:22:04.092Z,99.90
2019-04-07T00:24:33.229Z,99.90
2019-04-07T00:27:02.595Z,99.90
2019-04-07T00:29:31.593Z,99.90
2019-04-07T00:32:00.556Z,99.90
2019-04-07T00:34:29.421Z,99.90
2019-04-07T00:36:58.802Z,99.90
2019-04-07T00:39:28.016Z,99.90
2019-04-07T00:41:56.991Z,99.90
2019-04-07T00:44:25.981Z,99.90
2019-04-07T00:46:55.152Z,99.90
2019-04-07T00:49:24.635Z,99.90
2019-04-07T00:51:54.706Z,99.90
2019-04-07T00:54:23.857Z,99.90
2019-04-07T00:56:52.895Z,99.90
2019-04-07T00:59:21.769Z,99.90
2019-04-07T01:01:51.336Z,99.90
2019-04-07T01:04:21.057Z,99.90
2019-04-07T01:06:50.016Z,99.90
2019-04-07T01:09:18.873Z,99.90
2019-04-07T01:11:47.807Z,99.90
2019-04-07T01:14:17.020Z,99.90
2019-04-07T01:16:46.262Z,99.90
2019-04-07T01:19:15.179Z,99.90
2019-04-07T01:21:44.578Z,99.90
2019-04-07T01:24:13.565Z,99.90
2019-04-07T01:26:42.574Z,99.90
2019-04-07T01:29:11.456Z,99.90
2019-04-07T01:31:40.463Z,99.90
2019-04-07T01:34:09.570Z,99.90
2019-04-07T01:36:39.097Z,99.90
2019-04-07T01:39:10.377Z,99.90
2019-04-07T01:41:47.299Z,99.90
2019-04-07T01:44:21.794Z,99.90
2019-04-07T01:47:09.753Z,99.90
2019-04-07T01:49:56.630Z,99.90
2019-04-07T01:52:57.113Z,99.90
2019-04-07T01:55:47.876Z,99.90
2019-04-07T01:58:34.831Z,99.90
2019-04-07T02:01:27.354Z,99.90
2019-04-07T02:04:14.161Z,99.90
2019-04-07T02:07:05.690Z,99.90
2019-04-07T02:09:42.362Z,99.90
2019-04-07T02:12:33.572Z,99.90
2019-04-07T02:15:18.578Z,99.90
2019-04-07T02:18:02.497Z,99.90
2019-04-07T02:21:07.236Z,99.90
2019-04-07T02:23:54.772Z,99.90
2019-04-07T02:26:39.080Z,99.90
2019-04-07T02:29:26.036Z,99.90
2019-04-07T02:32:08.403Z,99.90
2019-04-07T02:34:45.563Z,99.90
2019-04-07T02:37:33.393Z,99.90
2019-04-07T02:40:11.706Z,99.90
2019-04-07T02:43:06.451Z,99.90
2019-04-07T02:45:58.148Z,99.90
2019-04-07T02:48:43.330Z,99.90
2019-04-07T02:51:34.439Z,99.90
2019-04-07T02:54:15.491Z,99.90
2019-04-07T02:56:52.363Z,99.90
2019-04-07T02:59:43.191Z,99.90
2019-04-07T03:02:21.171Z,99.90
2019-04-07T03:05:05.282Z,99.90
2019-04-07T03:07:44.571Z,99.90
2019-04-07T03:10:38.641Z,99.90
2019-04-07T03:13:17.116Z,99.90
2019-04-07T03:15:54.593Z,99.90
2019-04-07T03:18:48.641Z,99.90
2019-04-07T03:21:31.198Z,99.90
2019-04-07T03:24:19.018Z,99.90
2019-04-07T03:27:06.615Z,99.90
2019-04-07T03:29:58.750Z,99.90
2019-04-07T03:32:46.032Z,99.90
2019-04-07T03:35:38.397Z,99.90
2019-04-07T03:38:28.199Z,99.90
2019-04-07T03:41:16.269Z,99.90
2019-04-07T03:44:05.936Z,99.90
2019-04-07T03:46:41.256Z,99.90
2019-04-07T03:49:24.141Z,99.90
2019-04-07T03:52:19.258Z,99.90
2019-04-07T03:55:06.646Z,99.90
2019-04-07T03:57:44.824Z,99.90
2019-04-07T04:01:31.159Z,99.90
2019-04-07T04:04:31.208Z,99.90
2019-04-07T04:07:18.012Z,99.90
2019-04-07T04:09:52.047Z,99.90
2019-04-07T04:12:43.745Z,99.90
2019-04-07T04:15:26.367Z,99.90
2019-04-07T04:17:55.436Z,99.90
2019-04-07T04:20:24.439Z,99.90
2019-04-07T04:22:53.326Z,99.90
2019-04-07T04:25:23.025Z,99.90
2019-04-07T04:27:52.909Z,99.90
2019-04-07T04:30:21.981Z,99.90
2019-04-07T04:32:50.871Z,99.90
2019-04-07T04:35:20.093Z,99.90
2019-04-07T04:37:52.365Z,99.90
2019-04-07T04:40:20.676Z,99.90
2019-04-07T04:42:50.377Z,99.90
2019-04-07T04:45:19.593Z,99.90
2019-04-07T04:47:48.546Z,99.90
2019-04-07T04:50:17.525Z,99.90
2019-04-07T04:52:46.889Z,99.90
2019-04-07T04:55:16.641Z,99.90
2019-04-07T04:57:45.953Z,99.90
2019-04-07T05:00:15.760Z,99.90
2019-04-07T05:02:45.632Z,99.90
2019-04-07T05:05:14.792Z,99.90
2019-04-07T05:07:55.060Z,99.90
2019-04-07T05:10:14.316Z,99.90
2019-04-07T05:12:43.436Z,99.90
2019-04-07T05:15:13.062Z,99.90
2019-04-07T05:17:42.062Z,99.90
2019-04-07T05:20:11.395Z,99.90
2019-04-07T05:22:40.218Z,99.90
2019-04-07T05:25:09.451Z,99.90
2019-04-07T05:27:38.435Z,99.90
2019-04-07T05:30:07.738Z,99.90
2019-04-07T05:32:36.878Z,99.90
2019-04-07T05:35:06.478Z,99.90
2019-04-07T05:37:35.316Z,99.90
2019-04-07T05:40:04.801Z,99.90
2019-04-07T05:42:35.592Z,99.90
2019-04-07T05:45:05.312Z,99.90
2019-04-07T05:47:34.315Z,99.90
2019-04-07T05:50:05.104Z,99.90
2019-04-07T05:52:38.591Z,99.90
2019-04-07T05:55:04.873Z,99.90
2019-04-07T05:57:35.276Z,99.90
2019-04-07T06:00:05.914Z,99.90
2019-04-07T06:02:35.347Z,99.90
2019-04-07T06:05:05.272Z,99.90
2019-04-07T06:07:36.527Z,99.90
2019-04-07T06:10:05.562Z,99.90
2019-04-07T06:12:34.908Z,99.90
2019-04-07T06:15:04.224Z,99.90
2019-04-07T06:17:33.285Z,99.90
2019-04-07T06:20:02.704Z,99.90
2019-04-07T06:22:31.773Z,99.90
2019-04-07T06:25:02.621Z,99.90
2019-04-07T06:27:31.382Z,99.90
2019-04-07T06:30:00.937Z,99.90
2019-04-07T06:32:30.021Z,99.90
2019-04-07T06:34:59.389Z,99.90
2019-04-07T06:37:29.426Z,99.90
2019-04-07T06:39:59.247Z,99.90
2019-04-07T06:42:29.648Z,99.90
2019-04-07T06:45:00.340Z,99.90
2019-04-07T06:47:33.582Z,99.90
2019-04-07T06:50:22.257Z,99.90
2019-04-07T06:53:01.087Z,99.90
2019-04-07T06:55:50.672Z,99.90
2019-04-07T06:58:38.784Z,99.90
2019-04-07T07:01:24.506Z,99.90
2019-04-07T07:04:12.772Z,99.90
2019-04-07T07:07:06.534Z,99.90
2019-04-07T07:09:43.133Z,99.90
2019-04-07T07:12:34.931Z,99.90
2019-04-07T07:15:33.709Z,99.90
2019-04-07T07:18:31.432Z,99.90
2019-04-07T07:21:18.121Z,99.90
2019-04-07T07:23:48.878Z,99.90
2019-04-07T07:26:18.092Z,99.90
2019-04-07T07:28:47.102Z,99.90
2019-04-07T07:31:16.670Z,99.90
2019-04-07T07:33:45.788Z,99.90
2019-04-07T07:36:17.304Z,99.90
2019-04-07T07:38:55.592Z,99.90
2019-04-07T07:41:19.196Z,99.90
2019-04-07T07:43:47.037Z,99.90
2019-04-07T07:46:18.333Z,99.90
2019-04-07T07:48:46.846Z,99.90
2019-04-07T07:51:16.442Z,99.90
2019-04-07T07:53:46.117Z,99.90
2019-04-07T07:56:15.951Z,99.90
2019-04-07T07:58:45.159Z,99.90
2019-04-07T08:01:15.713Z,99.90
2019-04-07T08:03:44.835Z,99.90
2019-04-07T08:06:13.737Z,99.90
2019-04-07T08:08:45.218Z,99.90
2019-04-07T08:11:15.716Z,99.90
2019-04-07T08:13:45.840Z,99.90
2019-04-07T08:16:15.205Z,99.90
2019-04-07T08:18:46.091Z,99.90
2019-04-07T08:21:17.656Z,99.90
2019-04-07T08:23:45.488Z,99.90
2019-04-07T08:26:14.728Z,99.90
2019-04-07T08:28:43.976Z,99.90
2019-04-07T08:31:13.265Z,99.90
2019-04-07T08:33:42.259Z,99.90
2019-04-07T08:36:12.979Z,99.90
2019-04-07T08:38:42.266Z,99.90
2019-04-07T08:41:12.503Z,99.90
2019-04-07T08:43:42.072Z,99.90
2019-04-07T08:46:12.031Z,99.90
2019-04-07T08:48:41.096Z,99.90
2019-04-07T08:51:10.137Z,99.90
2019-04-07T08:53:43.538Z,99.90
2019-04-07T08:56:09.876Z,99.90
2019-04-07T08:58:40.056Z,99.90
2019-04-07T09:01:09.739Z,99.90
2019-04-07T09:03:38.835Z,99.90
2019-04-07T09:06:07.851Z,99.90
2019-04-07T09:08:38.199Z,99.90
2019-04-07T09:11:13.101Z,99.90
2019-04-07T09:13:45.381Z,99.90
2019-04-07T09:16:26.938Z,99.90
2019-04-07T09:19:13.734Z,99.90
2019-04-07T09:21:52.034Z,99.90
2019-04-07T09:24:38.242Z,99.90
2019-04-07T09:27:17.372Z,99.90
2019-04-07T09:30:02.688Z,99.90
2019-04-07T09:32:57.842Z,99.90
2019-04-07T09:35:40.183Z,99.90
2019-04-07T09:38:30.493Z,99.90
2019-04-07T09:41:23.125Z,99.90
2019-04-07T09:44:01.137Z,99.90
2019-04-07T09:46:36.693Z,99.90
2019-04-07T09:49:21.236Z,99.90
2019-04-07T09:52:04.631Z,99.90
2019-04-07T09:55:01.896Z,99.90
2019-04-07T09:57:56.035Z,99.90
2019-04-07T10:00:55.549Z,99.90
2019-04-07T10:03:39.448Z,99.90
2019-04-07T10:06:30.739Z,99.90
2019-04-07T10:09:09.093Z,99.90
2019-04-07T10:12:00.415Z,99.90
2019-04-07T10:14:47.522Z,99.90
2019-04-07T10:17:39.429Z,99.90
2019-04-07T10:20:42.943Z,99.90
2019-04-07T10:23:32.082Z,99.90
2019-04-07T10:26:26.896Z,99.90
2019-04-07T10:29:08.453Z,99.90
2019-04-07T10:31:49.289Z,99.90
2019-04-07T10:34:36.433Z,99.90
2019-04-07T10:37:13.477Z,99.90
2019-04-07T10:39:51.556Z,99.90
2019-04-07T10:42:46.001Z,99.90
2019-04-07T10:45:40.551Z,99.90
2019-04-07T10:48:29.806Z,99.90
2019-04-07T10:51:18.423Z,99.90
2019-04-07T10:54:19.871Z,99.90
2019-04-07T10:57:08.123Z,99.90
2019-04-07T11:00:05.819Z,99.90
2019-04-07T11:02:55.636Z,99.90
2019-04-07T11:05:42.727Z,99.90
2019-04-07T11:08:24.407Z,99.90
2019-04-07T11:11:08.186Z,99.90
2019-04-07T11:13:56.389Z,99.90
2019-04-07T11:16:50.524Z,99.90
2019-04-07T11:19:29.498Z,99.90
2019-04-07T11:22:26.656Z,99.90
2019-04-07T11:25:03.611Z,99.90
2019-04-07T11:27:42.136Z,99.90
2019-04-07T11:30:21.297Z,99.90
2019-04-07T11:33:22.526Z,99.90
2019-04-07T11:36:08.389Z,99.90
2019-04-07T11:38:55.906Z,99.50
2019-04-07T11:41:43.956Z,99.90
2019-04-07T11:44:21.646Z,99.40
2019-04-07T11:46:59.429Z,99.90
2019-04-07T11:49:46.501Z,99.90
2019-04-07T11:52:26.808Z,99.90
2019-04-07T11:55:15.046Z,99.90
2019-04-07T11:58:04.850Z,99.50
2019-04-07T12:00:44.082Z,98.90
2019-04-07T12:03:30.009Z,99.20
2019-04-07T12:06:08.646Z,97.40
2019-04-07T12:09:06.477Z,99.90
2019-04-07T12:11:53.779Z,99.90
2019-04-07T12:14:29.487Z,98.90
2019-04-07T12:17:21.088Z,97.20
2019-04-07T12:19:56.846Z,99.90
2019-04-07T12:22:38.091Z,99.90
2019-04-07T12:25:23.929Z,98.80
2019-04-07T12:30:55.182Z,99.90
2019-04-07T12:33:45.282Z,99.90
2019-04-07T12:36:31.780Z,99.90
2019-04-07T12:42:06.363Z,94.30
2019-04-07T12:44:52.853Z,97.50
2019-04-07T12:47:32.012Z,93.90
2019-04-07T12:50:06.796Z,93.40
2019-04-07T12:52:42.918Z,92.40
2019-04-07T12:55:30.467Z,93.40
2019-04-07T12:58:09.865Z,93.00
2019-04-07T13:01:01.374Z,92.50
2019-04-07T13:04:05.702Z,96.20
2019-04-07T13:06:47.888Z,93.10
2019-04-07T13:09:30.985Z,90.80
2019-04-07T13:12:20.322Z,90.70
2019-04-07T13:14:57.764Z,92.00
2019-04-07T13:17:48.396Z,91.00
2019-04-07T13:20:36.847Z,91.40
2019-04-07T13:23:27.705Z,91.70
2019-04-07T13:26:12.122Z,90.10
2019-04-07T13:29:02.990Z,92.40
2019-04-07T13:31:56.868Z,90.30
2019-04-07T13:34:35.460Z,92.80
2019-04-07T13:37:25.348Z,91.30
2019-04-07T13:40:03.996Z,90.50
2019-04-07T13:42:56.622Z,87.60
2019-04-07T13:45:35.709Z,86.80
2019-04-07T13:48:30.100Z,84.50
2019-04-07T13:51:18.421Z,90.60
2019-04-07T13:54:10.980Z,83.40
2019-04-07T13:57:02.364Z,80.90
2019-04-07T13:59:49.161Z,83.00
2019-04-07T14:02:35.943Z,88.90
2019-04-07T14:05:30.734Z,84.50
2019-04-07T14:08:13.905Z,85.90
2019-04-07T14:10:50.838Z,90.20
2019-04-07T14:13:27.358Z,92.20
2019-04-07T14:16:16.068Z,82.50
2019-04-07T14:19:05.530Z,86.00
2019-04-07T14:21:40.048Z,84.20
2019-04-07T14:24:27.165Z,84.20
2019-04-07T14:27:18.671Z,88.20
2019-04-07T14:30:00.342Z,85.80
2019-04-07T14:32:39.479Z,85.70
2019-04-07T14:35:31.559Z,88.50
2019-04-07T14:38:10.054Z,85.60
2019-04-07T14:41:03.990Z,89.00
2019-04-07T14:43:46.387Z,88.60
2019-04-07T14:46:32.643Z,85.70
2019-04-07T14:49:30.486Z,85.60
2019-04-07T14:52:33.988Z,86.00
2019-04-07T14:55:30.296Z,88.50
2019-04-07T14:58:20.659Z,86.90
2019-04-07T15:01:08.050Z,85.80
2019-04-07T15:03:36.404Z,85.90
2019-04-07T15:06:06.556Z,91.00
2019-04-07T15:08:53.603Z,88.20
2019-04-07T15:11:33.539Z,89.40
2019-04-07T15:14:02.979Z,92.40
2019-04-07T15:16:32.912Z,93.80
2019-04-07T15:19:03.105Z,90.30
2019-04-07T15:21:33.036Z,91.60
2019-04-07T15:24:06.209Z,93.90
2019-04-07T15:26:35.791Z,93.20
2019-04-07T15:29:08.981Z,91.40
2019-04-07T15:31:37.499Z,90.40
2019-04-07T15:34:09.659Z,90.90
2019-04-07T15:36:38.593Z,91.40
2019-04-07T15:39:10.899Z,92.60
2019-04-07T15:41:45.478Z,89.40
2019-04-07T15:44:39.090Z,88.60
2019-04-07T15:47:08.062Z,87.10
2019-04-07T15:49:39.866Z,88.70
2019-04-07T15:52:11.295Z,89.10
2019-04-07T15:54:43.381Z,88.40
2019-04-07T15:57:15.074Z,91.10
2019-04-07T15:59:46.620Z,91.20
2019-04-07T16:02:17.894Z,88.70
2019-04-07T16:04:49.259Z,86.70
2019-04-07T16:07:21.826Z,85.90
2019-04-07T16:09:56.657Z,85.20
2019-04-07T16:12:26.243Z,89.90
2019-04-07T16:14:57.880Z,86.90
2019-04-07T16:17:29.883Z,86.00
2019-04-07T16:20:01.912Z,89.40
2019-04-07T16:22:33.558Z,89.90
2019-04-07T16:25:05.084Z,89.70
2019-04-07T16:27:38.570Z,92.30
2019-04-07T16:30:10.157Z,94.10
2019-04-07T16:32:42.214Z,92.10
2019-04-07T16:35:16.158Z,90.50
2019-04-07T16:37:46.460Z,91.50
2019-04-07T16:40:18.465Z,91.80
2019-04-07T16:43:04.443Z,92.40
2019-04-07T16:45:22.426Z,93.10
2019-04-07T16:47:53.473Z,92.80
2019-04-07T16:50:24.977Z,93.90
2019-04-07T16:52:56.134Z,94.20
2019-04-07T16:55:46.685Z,95.00
2019-04-07T16:58:14.443Z,94.10
2019-04-07T17:00:43.782Z,94.10
2019-04-07T17:03:13.252Z,94.80
2019-04-07T17:05:43.081Z,94.50
2019-04-07T17:08:12.870Z,95.60
2019-04-07T17:10:42.434Z,95.40
2019-04-07T17:13:19.621Z,96.00
2019-04-07T17:15:43.181Z,94.20
2019-04-07T17:18:43.904Z,94.50
2019-04-07T17:21:15.594Z,94.50
2019-04-07T17:23:45.626Z,95.60
2019-04-07T17:26:14.880Z,95.50
2019-04-07T17:28:45.177Z,96.80
2019-04-07T17:31:16.402Z,96.90
2019-04-07T17:34:13.418Z,97.70
2019-04-07T17:36:51.978Z,98.90
2019-04-07T17:39:37.745Z,99.90
2019-04-07T17:42:05.951Z,99.90
2019-04-07T17:44:50.460Z,99.90
2019-04-07T17:47:39.303Z,99.90
2019-04-07T17:50:17.929Z,99.90
2019-04-07T17:52:58.509Z,99.90
2019-04-07T17:55:45.906Z,99.90
2019-04-07T17:58:31.021Z,99.90
2019-04-07T18:01:20.657Z,99.90
2019-04-07T18:04:15.572Z,99.90
2019-04-07T18:07:08.257Z,99.90
2019-04-07T18:09:43.787Z,99.90
2019-04-07T18:12:45.551Z,99.90
2019-04-07T18:15:40.521Z,99.90
2019-04-07T18:21:13.345Z,99.90
2019-04-07T18:24:02.327Z,99.90
2019-04-07T18:26:45.262Z,99.90
2019-04-07T18:29:31.076Z,99.90
2019-04-07T18:32:18.720Z,99.90
2019-04-07T18:35:11.243Z,99.90
2019-04-07T18:37:48.760Z,99.90
2019-04-07T18:40:31.865Z,99.90
2019-04-07T18:43:30.061Z,99.90
2019-04-07T18:46:07.289Z,99.90
2019-04-07T18:48:56.451Z,99.90
2019-04-07T18:51:49.339Z,99.90
2019-04-07T18:54:41.101Z,99.90
2019-04-07T18:57:19.484Z,99.90
2019-04-07T19:00:08.521Z,99.90
2019-04-07T19:02:57.625Z,99.90
2019-04-07T19:05:38.086Z,99.90
2019-04-07T19:08:30.104Z,99.90
2019-04-07T19:11:19.126Z,99.90
2019-04-07T19:14:24.600Z,99.90
2019-04-07T19:16:53.293Z,99.90
2019-04-07T19:19:40.391Z,99.90
2019-04-07T19:22:30.261Z,99.90
2019-04-07T19:25:18.011Z,99.90
2019-04-07T19:28:05.754Z,99.90
2019-04-07T19:30:54.997Z,99.90
2019-04-07T19:33:42.345Z,99.90
2019-04-07T19:36:42.677Z,99.90
2019-04-07T19:39:23.711Z,99.90
2019-04-07T19:42:14.939Z,99.90
2019-04-07T19:45:07.065Z,99.90
2019-04-07T19:47:48.043Z,99.90
2019-04-07T19:50:33.226Z,99.90
2019-04-07T19:53:13.137Z,99.90
2019-04-07T19:56:12.274Z,99.90
2019-04-07T19:59:07.699Z,99.90
2019-04-07T20:01:52.583Z,99.90
2019-04-07T20:04:50.141Z,99.90
2019-04-07T20:07:33.105Z,99.90
2019-04-07T20:10:19.962Z,99.90
2019-04-07T20:13:21.929Z,99.90
2019-04-07T20:16:00.350Z,99.90
2019-04-07T20:18:47.506Z,99.90
2019-04-07T20:21:39.365Z,99.90
2019-04-07T20:24:24.511Z,99.90
2019-04-07T20:27:01.054Z,99.90
2019-04-07T20:30:01.329Z,99.90
2019-04-07T20:32:37.428Z,99.90
2019-04-07T20:35:27.578Z,99.90
2019-04-07T20:38:34.572Z,99.90
2019-04-07T20:41:29.441Z,99.90
2019-04-07T20:44:21.037Z,99.90
2019-04-07T20:47:26.398Z,99.90
2019-04-07T20:50:05.620Z,99.90
2019-04-07T20:52:50.421Z,99.90
2019-04-07T20:55:46.519Z,99.90
2019-04-07T20:58:46.396Z,99.90
2019-04-07T21:01:20.822Z,99.90
2019-04-07T21:04:05.245Z,99.90
2019-04-07T21:06:52.206Z,99.90
2019-04-07T21:09:43.832Z,99.90
2019-04-07T21:12:36.983Z,99.90
2019-04-07T21:15:24.522Z,99.90
2019-04-07T21:18:05.824Z,99.90
2019-04-07T21:20:56.903Z,99.90
2019-04-07T21:23:46.893Z,99.90
2019-04-07T21:26:42.565Z,99.90
2019-04-07T21:29:19.248Z,99.90
2019-04-07T21:32:09.674Z,99.90
2019-04-07T21:35:01.913Z,99.90
2019-04-07T21:37:56.261Z,99.90
2019-04-07T21:40:47.996Z,99.90
2019-04-07T21:43:27.188Z,99.90
2019-04-07T21:46:04.530Z,99.90
2019-04-07T21:48:52.974Z,99.90
2019-04-07T21:51:31.282Z,99.90
2019-04-07T21:54:16.086Z,99.90
2019-04-07T21:57:03.031Z,99.90
2019-04-07T21:59:42.591Z,99.90
2019-04-07T22:02:29.561Z,99.90
2019-04-07T22:05:19.865Z,99.90
2019-04-07T22:08:17.310Z,99.90
2019-04-07T22:10:44.787Z,99.90
2019-04-07T22:13:14.187Z,99.90
2019-04-07T22:15:49.402Z,99.90
2019-04-07T22:18:13.675Z,99.90
2019-04-07T22:20:43.239Z,99.90
2019-04-07T22:23:12.579Z,99.90
2019-04-07T22:26:10.281Z,99.90
2019-04-07T22:28:37.418Z,99.90
2019-04-07T22:31:06.314Z,99.90
2019-04-07T22:33:35.235Z,99.90
2019-04-07T22:36:04.157Z,99.90
2019-04-07T22:38:33.635Z,99.90
2019-04-07T22:41:02.771Z,99.90
2019-04-07T22:43:31.869Z,99.90
2019-04-07T22:46:08.501Z,99.90
2019-04-07T22:48:31.364Z,99.90
2019-04-07T22:51:02.556Z,99.90
2019-04-07T22:53:31.404Z,99.90
2019-04-07T22:56:00.432Z,99.90
2019-04-07T22:58:29.801Z,99.90
2019-04-07T23:00:58.993Z,99.90
2019-04-07T23:03:27.883Z,99.90
2019-04-07T23:05:57.514Z,99.90
2019-04-07T23:08:26.474Z,99.90
2019-04-07T23:10:55.975Z,99.90
2019-04-07T23:13:25.835Z,99.90
2019-04-07T23:16:08.252Z,99.90
2019-04-07T23:18:25.450Z,99.90
2019-04-07T23:20:54.283Z,99.90
2019-04-07T23:23:23.901Z,99.90
2019-04-07T23:25:53.567Z,99.90
2019-04-07T23:28:22.923Z,99.90
2019-04-07T23:30:51.921Z,99.90
2019-04-07T23:33:20.893Z,99.90
2019-04-07T23:35:49.725Z,99.90
2019-04-07T23:38:18.615Z,99.90
2019-04-07T23:40:48.177Z,99.90
2019-04-07T23:43:17.406Z,99.90
2019-04-07T23:45:47.489Z,99.90
2019-04-07T23:48:16.443Z,99.90
2019-04-07T23:50:45.369Z,99.90
2019-04-07T23:53:50.686Z,99.90
2019-04-07T23:56:19.832Z,99.90
2019-04-07T23:58:48.799Z,99.90
